< < Back
Terminal Aerodrome Forecast


Current Version              Previous Versions:   1  2  3  4  5  6  7  8  9  

Terminal Aerodrome Forecast

504
FTUS44 KBMX 311442 AAA
TAFBHM
TAF AMD
KBHM 311442Z 3115/0112 22007KT P6SM BKN035
     FM312000 25008KT 3SM TSRA BR OVC025CB
     FM312300 25006KT P6SM OVC080=



Latest METAR

917
SAUS70 KWBC 312200 RRD
MTRBHM
METAR KBHM 312153Z 25006KT 10SM TS BKN100CB OVC110 23/16 A2995 RMK AO2
SLP138 TSB48 OCNL LTGIC N TS N MOV E T02280156


USA.gov is the U.S. government's official web portal to all federal, state and local government web resources and services.